Antwerp, Belgium

9:37 AM CEST on September 03, 2014 (GMT +0200)
Deurne | Change Station
CLOSE
Current Station
Airport
Location: Antwerp,
Elevation: 39 ft
Nearby Weather Stations

Elev 39 ft 51.19 °N, 4.46 °E | Updated 17 minutes ago

Mostly Cloudy
Mostly Cloudy
59 °F
Feels Like 59 °F
N
8
Wind Variable Wind from East

Today
High -- | Low -- °F
--% Chance of Precip.
Yesterday
High -- | Low -- °F
Precip. -- in
6:58 AM 8:23 PM
First Quarter, 59% visible
Pressure 30.21 in
Visibility 1.3 miles
Clouds Mostly Cloudy 300 ft
Dew Point 57 °F
Humidity 94%
Rainfall 0.00 in
Snow Depth Not available.
UV 1 out of 12
Pollen Not available.
Air Quality Not available.
Flu Activity Not available.
METAR EBAW 030720Z 09007KT 2100 BR BKN003 15/14 Q1023 BECMG FM0830 3000 BR SCT003

More Conditions Fewer Conditions

Pressure 30.21 in
Visibility 1.3 miles
Clouds Mostly Cloudy 300 ft
Dew Point 57 °F
Humidity 94%
Rainfall 0.00 in
Snow Depth Not available.
UV 1 out of 12
Pollen Not available.
Air Quality Not available.
Flu Activity Not available.
METAR EBAW 030720Z 09007KT 2100 BR BKN003 15/14 Q1023 BECMG FM0830 3000 BR SCT003

More Conditions Fewer Conditions

10-Day Weather Forecast

Almanac

Astronomy

Sep. 03, 2014 Rise Set
Actual Time 6:58 AM CEST 8:23 PM CEST
Civil Twilight 6:23 AM CEST 8:58 PM CEST
Nautical Twilight 5:41 AM CEST 9:40 PM CEST
Astronomical Twilight 4:55 AM CEST 10:25 PM CEST
Moon 4:12 PM CEST 12:17 AM CEST
Length of Visible Light 14h 34m
Length of Day
13h 25m
Tomorrow will be 3m 48s shorter.
First Quarter, 59% of the Moon is Illuminated
Today
First Quarter
Sep 8
Full
Sep 15
Last Quarter
Sep 24
New
Oct 1
First Quarter

Yesterday's Extremes

Country Highs Country Lows

Community

WunderPhotos

Upload Photos

1,749,891 photos uploaded!

Nearby

Snow Depth

Not available.

Earthquake Activity

City Distance Mag. Time & Date
No recent earthquake activity has been reported nearby.
Minimum magnitude displayed is 2.5.

Coastal Water Temperatures

Place Temperature
No Stations Reporting

Nearby Weather Stations